Snoqualmie River: Carnation station

back to: Snoqualmie river
Carnation station Summary - (NOAA Hydrograph: CRNW1)
flood stage: 54.0 ft
Latest reading:
Sat09/21 02:15 am 45.52 ft 1284 cfs (steady)
Past 24hr max:
Fri09/20 02:30 am 45.67 ft 1459 cfs
Forecasted crests: (published Fri 09/20/19 02:05 pm)
Mon09/23 05:00 am 45.7 ft 1505 cfs
Tue09/24 05:00 pm 45.29 ft 993 cfs
Thu09/26 11:00 am 45.66 ft 1441 cfs
Fri09/27 11:00 pm 45.9 ft 1785 cfs

Carnation station Details

Latest Readings

Last 100 Readings:
Sat09/21 02:15 am 45.52 ft 1284 cfs
Sat09/21 02:00 am 45.52 ft 1284 cfs
Sat09/21 01:45 am 45.52 ft 1284 cfs
Sat09/21 01:30 am 45.53 ft 1297 cfs
Sat09/21 01:15 am 45.53 ft 1297 cfs
Sat09/21 01:00 am 45.53 ft 1297 cfs
Sat09/21 12:45 am 45.53 ft 1297 cfs
Sat09/21 12:30 am 45.53 ft 1297 cfs
Sat09/21 12:15 am 45.53 ft 1297 cfs
Sat09/21 12:00 am 45.53 ft 1297 cfs
Fri09/20 11:45 pm 45.53 ft 1297 cfs
Fri09/20 11:30 pm 45.53 ft 1297 cfs
Fri09/20 11:15 pm 45.53 ft 1297 cfs
Fri09/20 11:00 pm 45.53 ft 1297 cfs
Fri09/20 10:45 pm 45.54 ft 1308 cfs
Fri09/20 10:30 pm 45.53 ft 1297 cfs
Fri09/20 10:15 pm 45.54 ft 1308 cfs
Fri09/20 10:00 pm 45.54 ft 1308 cfs
Fri09/20 09:45 pm 45.54 ft 1308 cfs
Fri09/20 09:30 pm 45.54 ft 1308 cfs
Fri09/20 09:15 pm 45.54 ft 1308 cfs
Fri09/20 09:00 pm 45.54 ft 1308 cfs
Fri09/20 08:45 pm 45.54 ft 1308 cfs
Fri09/20 08:30 pm 45.54 ft 1308 cfs
Fri09/20 08:15 pm 45.54 ft 1308 cfs
Fri09/20 08:00 pm 45.54 ft 1308 cfs
Fri09/20 07:45 pm 45.55 ft 1319 cfs
Fri09/20 07:30 pm 45.54 ft 1308 cfs
Fri09/20 07:15 pm 45.54 ft 1308 cfs
Fri09/20 07:00 pm 45.55 ft 1319 cfs
Fri09/20 06:45 pm 45.55 ft 1319 cfs
Fri09/20 06:30 pm 45.55 ft 1319 cfs
Fri09/20 06:15 pm 45.55 ft 1319 cfs
Fri09/20 06:00 pm 45.55 ft 1319 cfs
Fri09/20 05:45 pm 45.55 ft 1319 cfs
Fri09/20 05:30 pm 45.56 ft 1330 cfs
Fri09/20 05:15 pm 45.56 ft 1330 cfs
Fri09/20 05:00 pm 45.56 ft 1330 cfs
Fri09/20 04:45 pm 45.56 ft 1330 cfs
Fri09/20 04:30 pm 45.56 ft 1330 cfs
Fri09/20 04:15 pm 45.56 ft 1330 cfs
Fri09/20 04:00 pm 45.56 ft 1330 cfs
Fri09/20 03:45 pm 45.56 ft 1330 cfs
Fri09/20 03:30 pm 45.56 ft 1330 cfs
Fri09/20 03:15 pm 45.56 ft 1330 cfs
Fri09/20 03:00 pm 45.56 ft 1330 cfs
Fri09/20 02:45 pm 45.56 ft 1330 cfs
Fri09/20 02:30 pm 45.57 ft 1341 cfs
Fri09/20 02:15 pm 45.57 ft 1341 cfs
Fri09/20 02:00 pm 45.57 ft 1341 cfs
Fri09/20 01:45 pm 45.57 ft 1341 cfs
Fri09/20 01:30 pm 45.57 ft 1341 cfs
Fri09/20 01:15 pm 45.58 ft 1352 cfs
Fri09/20 01:00 pm 45.58 ft 1352 cfs
Fri09/20 12:45 pm 45.58 ft 1352 cfs
Fri09/20 12:30 pm 45.58 ft 1352 cfs
Fri09/20 12:15 pm 45.58 ft 1352 cfs
Fri09/20 12:00 pm 45.59 ft 1363 cfs
Fri09/20 11:45 am 45.59 ft 1363 cfs
Fri09/20 11:30 am 45.59 ft 1363 cfs
Fri09/20 11:15 am 45.59 ft 1363 cfs
Fri09/20 11:00 am 45.59 ft 1363 cfs
Fri09/20 10:45 am 45.6 ft 1374 cfs
Fri09/20 10:30 am 45.6 ft 1374 cfs
Fri09/20 10:15 am 45.6 ft 1374 cfs
Fri09/20 10:00 am 45.6 ft 1374 cfs
Fri09/20 09:45 am 45.61 ft 1385 cfs
Fri09/20 09:30 am 45.61 ft 1385 cfs
Fri09/20 09:15 am 45.61 ft 1385 cfs
Fri09/20 09:00 am 45.61 ft 1385 cfs
Fri09/20 08:45 am 45.61 ft 1385 cfs
Fri09/20 08:30 am 45.62 ft 1397 cfs
Fri09/20 08:15 am 45.62 ft 1397 cfs
Fri09/20 08:00 am 45.62 ft 1397 cfs
Fri09/20 07:45 am 45.62 ft 1397 cfs
Fri09/20 07:30 am 45.63 ft 1408 cfs
Fri09/20 07:15 am 45.63 ft 1408 cfs
Fri09/20 07:00 am 45.63 ft 1408 cfs
Fri09/20 06:45 am 45.63 ft 1408 cfs
Fri09/20 06:30 am 45.63 ft 1408 cfs
Fri09/20 06:15 am 45.63 ft 1408 cfs
Fri09/20 06:00 am 45.63 ft 1408 cfs
Fri09/20 05:45 am 45.64 ft 1419 cfs
Fri09/20 05:30 am 45.64 ft 1419 cfs
Fri09/20 05:15 am 45.64 ft 1419 cfs
Fri09/20 05:00 am 45.64 ft 1419 cfs
Fri09/20 04:45 am 45.65 ft 1432 cfs
Fri09/20 04:30 am 45.65 ft 1432 cfs
Fri09/20 04:15 am 45.65 ft 1432 cfs
Fri09/20 04:00 am 45.65 ft 1432 cfs
Fri09/20 03:45 am 45.65 ft 1432 cfs
Fri09/20 03:30 am 45.66 ft 1446 cfs
Fri09/20 03:15 am 45.66 ft 1446 cfs
Fri09/20 03:00 am 45.66 ft 1446 cfs
Fri09/20 02:45 am 45.66 ft 1446 cfs
Fri09/20 02:30 am 45.67 ft 1459 cfs
Fri09/20 02:15 am 45.66 ft 1446 cfs
Fri09/20 02:00 am 45.67 ft 1459 cfs
Fri09/20 01:45 am 45.67 ft 1459 cfs
Fri09/20 01:30 am 45.67 ft 1459 cfs

Latest Forecasts

Currently Forecasted Readings:
Fri09/20 05:00 pm 45.56 ft 1330 cfs
Fri09/20 11:00 pm 45.52 ft 1279 cfs
Sat09/21 05:00 am 45.47 ft 1219 cfs
Sat09/21 11:00 am 45.43 ft 1164 cfs
Sat09/21 05:00 pm 45.39 ft 1114 cfs
Sat09/21 11:00 pm 45.35 ft 1065 cfs
Sun09/22 05:00 am 45.31 ft 1023 cfs
Sun09/22 11:00 am 45.31 ft 1015 cfs
Sun09/22 05:00 pm 45.37 ft 1089 cfs
Sun09/22 11:00 pm 45.53 ft 1292 cfs
Mon09/23 05:00 am 45.7 ft 1505 cfs
Mon09/23 11:00 am 45.67 ft 1459 cfs
Mon09/23 05:00 pm 45.48 ft 1231 cfs
Mon09/23 11:00 pm 45.34 ft 1059 cfs
Tue09/24 05:00 am 45.27 ft 975 cfs
Tue09/24 11:00 am 45.27 ft 967 cfs
Tue09/24 05:00 pm 45.29 ft 993 cfs
Tue09/24 11:00 pm 45.27 ft 968 cfs
Wed09/25 05:00 am 45.21 ft 908 cfs
Wed09/25 11:00 am 45.17 ft 857 cfs
Wed09/25 05:00 pm 45.17 ft 855 cfs
Wed09/25 11:00 pm 45.33 ft 1038 cfs
Thu09/26 05:00 am 45.59 ft 1363 cfs
Thu09/26 11:00 am 45.66 ft 1441 cfs
Thu09/26 05:00 pm 45.53 ft 1303 cfs
Thu09/26 11:00 pm 45.51 ft 1268 cfs
Fri09/27 05:00 am 45.65 ft 1436 cfs
Fri09/27 11:00 am 45.77 ft 1601 cfs
Fri09/27 05:00 pm 45.83 ft 1683 cfs
Fri09/27 11:00 pm 45.9 ft 1785 cfs
Sat09/28 05:00 am 45.89 ft 1774 cfs
Sat09/28 11:00 am 45.75 ft 1564 cfs
Sat09/28 05:00 pm 45.59 ft 1363 cfs
Sat09/28 11:00 pm 45.5 ft 1253 cfs
Sun09/29 05:00 am 45.43 ft 1171 cfs
Sun09/29 11:00 am 45.38 ft 1105 cfs
Sun09/29 05:00 pm 45.34 ft 1059 cfs
Sun09/29 11:00 pm 45.31 ft 1021 cfs
Mon09/30 05:00 am 45.3 ft 1002 cfs

Snoqualmie River flood gauge data supplied by the
National Weather Service Northwest River Forecast Center.

Sign up for Floodzilla alerts.